Hlavní strana
METAR-TAF:

METAR-TAF

Letiště :

Arequipa, Peru

zeměpisná šířka: 16-19S, zeměpisná délka: 071-33W, výška: 2538 m

Aktuální stav počasí

Zpráva byla vytvořena před 1 hodinou a 18 minutami, v 01:00 UTC
Jihovýchodní vítr 3 kt
Teplota 13°C
Vlhkost vzduchu 72%
Tlak 1027 hPa
Viditelnost 10 km a více
Žádná oblačnost pod 1500 m, nevyskytují se cumulonimby.

METAR: SPQU 220100Z 14003KT CAVOK 13/08 Q1027 RMK PP000

Čas: 21:18 (02:18 UTC)

Předpověď počasí

Zpráva byla vytvořena před 3 hodinami a 14 minutami, v 23:04 UTC
Předpověď platná od 22 v 00 UTC do 22 v 24 UTC
Severovýchodní vítr 5 kt
Viditelnost 10 km a více
Žádná oblačnost pod 1500 m, nevyskytují se cumulonimby.
Změna
od 22 v 14 UTC do 22 v 16 UTC
Západojihozápadní vítr 10 kt

TAF: SPQU 212304Z 2200/2224 05005KT CAVOK TX21/2218Z TN10/2210Z BECMG 2214/2216 25010KT

Stav a předpovědi počasí z více než 4 000 letišť (zprávy METAR a TAF).

Červené a žluté tečky na mapě představují dostupné meteorologické stanice.

Když kurzor umístíte na tečku, zobrazí se název stanice.

Pak kliknutím zobrazíte stav a předpověď počasí.

Chcete-li změnit mapu, kliknutím na zelené tlačítko se znaménkem +mapu přiblížíte, kliknutím na zelené tlačítko se znaménkem – mapu oddálíte a kliknutím na zelené šipky přejdete na sousední mapy.


METAR-TAF: